createdAt,value
2023-03-23T15:58:55.812Z,14.47
2023-03-23T16:02:27.120Z,14.39
2023-03-23T16:05:55.570Z,14.33
2023-03-23T16:09:23.264Z,14.30
2023-03-23T16:12:50.659Z,14.27
2023-03-23T16:16:20.107Z,14.23
2023-03-23T16:19:47.005Z,14.19
2023-03-23T16:23:13.716Z,14.16
2023-03-23T16:26:42.178Z,14.13
2023-03-23T16:30:19.137Z,14.09
2023-03-23T16:33:49.228Z,13.99
2023-03-23T16:37:17.163Z,13.87
2023-03-23T16:40:48.645Z,13.76
2023-03-23T16:44:15.143Z,13.70
2023-03-23T16:47:42.660Z,13.66
2023-03-23T16:51:10.070Z,13.60
2023-03-23T16:54:36.703Z,13.51
2023-03-23T16:58:16.335Z,13.45
2023-03-23T17:01:44.279Z,13.38
2023-03-23T17:05:13.821Z,13.31
2023-03-23T17:08:40.812Z,13.23
2023-03-23T17:12:08.896Z,13.16
2023-03-23T17:15:54.245Z,13.09
2023-03-23T17:19:21.523Z,13.02
2023-03-23T17:22:49.615Z,12.96
2023-03-23T17:26:16.450Z,12.94
2023-03-23T17:29:43.338Z,12.92
2023-03-23T17:33:11.276Z,12.92
2023-03-23T17:36:38.425Z,12.91
2023-03-23T17:40:08.633Z,12.90
2023-03-23T17:43:36.578Z,12.90
2023-03-23T17:47:04.731Z,12.90
2023-03-23T17:50:32.030Z,12.90
2023-03-23T17:53:59.337Z,12.88
2023-03-23T17:57:26.349Z,12.86
2023-03-23T18:00:53.284Z,12.81
2023-03-23T18:04:19.884Z,12.75
2023-03-23T18:07:47.443Z,12.67
2023-03-23T18:11:14.167Z,12.63
2023-03-23T18:14:40.887Z,12.60
2023-03-23T18:18:08.764Z,12.54
2023-03-23T18:21:35.473Z,12.50
2023-03-23T18:25:02.972Z,12.44
2023-03-23T18:28:29.585Z,12.40
2023-03-23T18:31:56.423Z,12.38
2023-03-23T18:35:24.030Z,12.37
2023-03-23T18:38:51.605Z,12.38
2023-03-23T18:42:18.685Z,12.39
2023-03-23T18:45:49.754Z,12.40
2023-03-23T18:49:16.778Z,12.44
2023-03-23T18:52:43.604Z,12.47
2023-03-23T18:56:13.838Z,12.49
2023-03-23T18:59:41.403Z,12.51
2023-03-23T19:03:11.460Z,12.53
2023-03-23T19:06:38.540Z,12.53
2023-03-23T19:10:06.498Z,12.51
2023-03-23T19:13:37.545Z,12.46
2023-03-23T19:17:06.399Z,12.41
2023-03-23T19:21:07.807Z,12.37
2023-03-23T19:24:20.769Z,12.35
2023-03-23T19:28:27.534Z,12.36
2023-03-23T19:31:34.756Z,12.36
2023-03-23T19:35:03.384Z,12.38
2023-03-23T19:38:30.981Z,12.40
2023-03-23T19:41:57.879Z,12.43
2023-03-23T19:45:25.258Z,12.44
2023-03-23T19:48:52.305Z,12.45
2023-03-23T19:52:20.305Z,12.47
2023-03-23T19:55:50.261Z,12.48
2023-03-23T19:59:18.519Z,12.48
2023-03-23T20:02:46.115Z,12.47
2023-03-23T20:06:22.735Z,12.44
2023-03-23T20:09:52.598Z,12.40
2023-03-23T20:13:20.232Z,12.34
2023-03-23T20:16:47.659Z,12.29
2023-03-23T20:20:15.760Z,12.21
2023-03-23T20:23:45.200Z,12.14
2023-03-23T20:27:13.491Z,12.05
2023-03-23T20:30:40.447Z,11.98
2023-03-23T20:34:10.842Z,11.92
2023-03-23T20:37:41.296Z,11.91
2023-03-23T20:41:12.281Z,11.90
2023-03-23T20:44:39.904Z,11.91
2023-03-23T20:48:09.830Z,11.93
2023-03-23T20:51:37.519Z,11.97
2023-03-23T20:55:06.164Z,12.00
2023-03-23T20:58:34.651Z,12.00
2023-03-23T21:02:03.036Z,12.02
2023-03-23T21:05:30.275Z,12.02
2023-03-23T21:08:58.898Z,12.00
2023-03-23T21:12:26.206Z,11.95
2023-03-23T21:15:55.276Z,11.91
2023-03-23T21:19:27.768Z,11.87
2023-03-23T21:22:55.147Z,11.82
2023-03-23T21:26:25.694Z,11.76
2023-03-23T21:30:18.578Z,11.72
2023-03-23T21:33:45.670Z,11.68
2023-03-23T21:37:15.370Z,11.66
2023-03-23T21:40:46.721Z,11.65
2023-03-23T21:44:15.604Z,11.68
2023-03-23T21:47:43.420Z,11.70
2023-03-23T21:51:16.521Z,11.72
2023-03-23T21:54:43.879Z,11.73
2023-03-23T21:58:11.326Z,11.72
2023-03-23T22:01:40.613Z,11.65
2023-03-23T22:05:08.404Z,11.59
2023-03-23T22:08:35.631Z,11.56
2023-03-23T22:12:02.712Z,11.54
2023-03-23T22:15:29.775Z,11.51
2023-03-23T22:18:59.668Z,11.47
2023-03-23T22:22:28.022Z,11.44
2023-03-23T22:25:55.980Z,11.40
2023-03-23T22:29:23.212Z,11.35
2023-03-23T22:32:50.277Z,11.34
2023-03-23T22:36:17.896Z,11.34
2023-03-23T22:39:47.040Z,11.36
2023-03-23T22:43:13.980Z,11.38
2023-03-23T22:46:41.167Z,11.39
2023-03-23T22:50:09.542Z,11.36
2023-03-23T22:53:36.734Z,11.33
2023-03-23T22:57:09.064Z,11.34
2023-03-23T23:00:43.887Z,11.35
2023-03-23T23:04:16.138Z,11.34
2023-03-23T23:07:45.127Z,11.31
2023-03-23T23:11:21.804Z,11.24
2023-03-23T23:14:49.083Z,11.15
2023-03-23T23:18:17.880Z,11.06
2023-03-23T23:21:44.841Z,10.95
2023-03-23T23:25:11.736Z,10.89
2023-03-23T23:28:39.345Z,10.83
2023-03-23T23:32:07.058Z,10.79
2023-03-23T23:35:35.321Z,10.73
2023-03-23T23:39:07.968Z,10.71
2023-03-23T23:42:36.379Z,10.71
2023-03-23T23:46:09.447Z,10.74
2023-03-23T23:49:36.238Z,10.78
2023-03-23T23:53:05.299Z,10.82
2023-03-23T23:56:32.901Z,10.86
